createdAt,value
2023-03-23T15:59:06.253Z,99114.41
2023-03-23T16:01:33.040Z,99110.41
2023-03-23T16:04:07.607Z,99116.44
2023-03-23T16:06:35.663Z,99118.06
2023-03-23T16:09:03.588Z,99125.72
2023-03-23T16:11:31.523Z,99120.53
2023-03-23T16:13:58.580Z,99113.72
2023-03-23T16:16:27.766Z,99103.72
2023-03-23T16:18:54.422Z,99102.94
2023-03-23T16:21:21.180Z,99105.34
2023-03-23T16:23:47.666Z,99101.34
2023-03-23T16:26:15.137Z,99113.00
2023-03-23T16:28:42.181Z,99129.06
2023-03-23T16:31:09.044Z,99131.09
2023-03-23T16:33:35.691Z,99138.69
2023-03-23T16:36:02.873Z,99132.69
2023-03-23T16:38:29.426Z,99138.69
2023-03-23T16:40:55.918Z,99135.06
2023-03-23T16:43:22.643Z,99133.84
2023-03-23T16:45:49.356Z,99140.31
2023-03-23T16:48:16.962Z,99134.31
2023-03-23T16:50:44.354Z,99140.31
2023-03-23T16:53:11.154Z,99139.13
2023-03-23T16:55:38.452Z,99138.34
2023-03-23T16:58:16.273Z,99143.16
2023-03-23T17:00:45.579Z,99142.75
2023-03-23T17:03:13.323Z,99147.19
2023-03-23T17:05:41.551Z,99146.41
2023-03-23T17:08:08.190Z,99150.03
2023-03-23T17:10:34.773Z,99134.41
2023-03-23T17:13:01.869Z,99152.06
2023-03-23T17:15:28.595Z,99147.28
2023-03-23T17:17:55.383Z,99164.09
2023-03-23T17:20:22.438Z,99183.31
2023-03-23T17:22:49.411Z,99179.72
2023-03-23T17:25:16.098Z,99177.72
2023-03-23T17:27:42.897Z,99174.50
2023-03-23T17:30:11.252Z,99165.69
2023-03-23T17:32:38.298Z,99173.28
2023-03-23T17:35:06.588Z,99165.69
2023-03-23T17:37:33.345Z,99167.25
2023-03-23T17:40:00.946Z,99184.06
2023-03-23T17:42:27.637Z,99173.66
2023-03-23T17:44:54.107Z,99174.84
2023-03-23T17:47:20.857Z,99170.78
2023-03-23T17:49:47.911Z,99177.19
2023-03-23T17:52:14.708Z,99170.78
2023-03-23T17:54:41.255Z,99169.97
2023-03-23T17:57:08.292Z,99170.34
2023-03-23T17:59:34.888Z,99171.53
2023-03-23T18:02:01.436Z,99185.53
2023-03-23T18:04:27.988Z,99181.94
2023-03-23T18:06:56.609Z,99186.34
2023-03-23T18:09:24.211Z,99199.91
2023-03-23T18:11:51.284Z,99204.31
2023-03-23T18:14:18.264Z,99202.31
2023-03-23T18:16:44.993Z,99210.28
2023-03-23T18:19:11.952Z,99207.88
2023-03-23T18:21:38.989Z,99209.00
2023-03-23T18:24:05.710Z,99206.59
2023-03-23T18:26:32.243Z,99196.97
2023-03-23T18:28:58.680Z,99195.34
2023-03-23T18:31:25.426Z,99201.34
2023-03-23T18:33:54.429Z,99197.31
2023-03-23T18:36:24.299Z,99191.72
2023-03-23T18:38:51.162Z,99200.88
2023-03-23T18:41:18.362Z,99189.72
2023-03-23T18:43:44.891Z,99190.13
2023-03-23T18:46:11.397Z,99187.69
2023-03-23T18:48:37.906Z,99199.69
2023-03-23T18:51:04.592Z,99190.78
2023-03-23T18:53:31.309Z,99197.19
2023-03-23T18:56:09.717Z,99196.28
2023-03-23T18:58:36.603Z,99188.31
2023-03-23T19:01:07.033Z,99197.97
2023-03-23T19:03:35.301Z,99200.28
2023-03-23T19:06:02.213Z,99202.69
2023-03-23T19:08:29.442Z,99205.03
2023-03-23T19:10:59.888Z,99208.19
2023-03-23T19:13:28.443Z,99205.78
2023-03-23T19:15:55.183Z,99199.75
2023-03-23T19:18:22.124Z,99193.38
2023-03-23T19:23:22.207Z,99194.19
2023-03-23T19:25:48.950Z,99204.91
2023-03-23T19:30:47.422Z,99201.72
2023-03-23T19:33:15.204Z,99199.59
2023-03-23T19:35:42.030Z,99194.75
2023-03-23T19:38:09.145Z,99195.31
2023-03-23T19:40:41.474Z,99184.97
2023-03-23T19:43:09.382Z,99184.38
2023-03-23T19:45:36.941Z,99188.31
2023-03-23T19:48:03.925Z,99176.25
2023-03-23T19:50:31.760Z,99173.88
2023-03-23T19:53:00.163Z,99182.63
2023-03-23T19:55:27.314Z,99184.28
2023-03-23T19:57:54.076Z,99186.72
2023-03-23T20:00:20.823Z,99187.56
2023-03-23T20:02:49.923Z,99187.66
2023-03-23T20:05:16.606Z,99196.09
2023-03-23T20:07:46.441Z,99191.06
2023-03-23T20:10:16.391Z,99192.84
2023-03-23T20:12:42.877Z,99190.53
2023-03-23T20:15:09.534Z,99193.72
2023-03-23T20:17:36.371Z,99199.69
2023-03-23T20:20:06.351Z,99191.31
2023-03-23T20:22:33.804Z,99192.16
2023-03-23T20:25:00.759Z,99192.97
2023-03-23T20:27:27.688Z,99195.38
2023-03-23T20:29:57.327Z,99188.88
2023-03-23T20:32:23.888Z,99185.28
2023-03-23T20:34:50.431Z,99190.88
2023-03-23T20:37:20.734Z,99200.97
2023-03-23T20:39:48.715Z,99195.31
2023-03-23T20:42:15.814Z,99204.84
2023-03-23T20:44:42.910Z,99199.25
2023-03-23T20:47:09.848Z,99201.97
2023-03-23T20:49:37.886Z,99205.56
2023-03-23T20:52:06.164Z,99199.69
2023-03-23T20:54:32.847Z,99202.53
2023-03-23T20:56:59.720Z,99204.13
2023-03-23T20:59:26.608Z,99196.78
2023-03-23T21:01:53.095Z,99194.69
2023-03-23T21:04:23.128Z,99189.44
2023-03-23T21:06:49.730Z,99188.66
2023-03-23T21:09:17.305Z,99191.56
2023-03-23T21:11:44.936Z,99187.19
2023-03-23T21:14:11.775Z,99188.75
2023-03-23T21:16:39.005Z,99185.56
2023-03-23T21:19:06.012Z,99182.34
2023-03-23T21:21:34.217Z,99182.84
2023-03-23T21:24:01.112Z,99178.75
2023-03-23T21:26:29.361Z,99174.16
2023-03-23T21:28:59.763Z,99175.19
2023-03-23T21:31:30.509Z,99168.88
2023-03-23T21:33:58.094Z,99168.56
2023-03-23T21:36:25.510Z,99160.66
2023-03-23T21:38:52.854Z,99155.06
2023-03-23T21:41:19.422Z,99165.53
2023-03-23T21:43:46.915Z,99163.09
2023-03-23T21:46:18.045Z,99156.31
2023-03-23T21:48:51.261Z,99157.06
2023-03-23T21:51:28.824Z,99162.22
2023-03-23T21:53:56.254Z,99155.41
2023-03-23T21:56:24.902Z,99152.94
2023-03-23T21:58:51.675Z,99151.75
2023-03-23T22:01:19.216Z,99143.00
2023-03-23T22:03:45.876Z,99146.88
2023-03-23T22:06:23.260Z,99139.88
2023-03-23T22:08:50.083Z,99140.72
2023-03-23T22:11:23.046Z,99137.97
2023-03-23T22:13:50.366Z,99133.94
2023-03-23T22:16:18.319Z,99143.13
2023-03-23T22:18:46.305Z,99134.91
2023-03-23T22:21:14.084Z,99132.16
2023-03-23T22:23:41.126Z,99131.78
2023-03-23T22:26:08.541Z,99138.97
2023-03-23T22:28:37.113Z,99123.00
2023-03-23T22:31:11.852Z,99119.00
2023-03-23T22:33:38.667Z,99117.78
2023-03-23T22:36:06.670Z,99114.59
2023-03-23T22:38:34.789Z,99118.63
2023-03-23T22:41:06.947Z,99110.22
2023-03-23T22:43:37.008Z,99115.81
2023-03-23T22:46:04.655Z,99106.66
2023-03-23T22:48:31.604Z,99103.03
2023-03-23T22:50:58.527Z,99091.88
2023-03-23T22:53:25.930Z,99097.47
2023-03-23T22:55:54.873Z,99087.13
2023-03-23T22:58:21.808Z,99087.88
2023-03-23T23:00:50.120Z,99090.28
2023-03-23T23:03:17.262Z,99080.28
2023-03-23T23:05:46.441Z,99080.28
2023-03-23T23:08:14.628Z,99074.28
2023-03-23T23:10:44.656Z,99066.34
2023-03-23T23:13:12.852Z,99062.75
2023-03-23T23:15:47.113Z,99063.50
2023-03-23T23:18:13.874Z,99061.53
2023-03-23T23:20:41.398Z,99059.91
2023-03-23T23:23:08.211Z,99048.75
2023-03-23T23:25:35.161Z,99051.94
2023-03-23T23:28:03.661Z,99050.34
2023-03-23T23:30:30.762Z,99051.16
2023-03-23T23:32:58.812Z,99052.28
2023-03-23T23:35:25.769Z,99045.56
2023-03-23T23:37:52.577Z,99053.50
2023-03-23T23:40:19.931Z,99040.75
2023-03-23T23:42:49.133Z,99048.72
2023-03-23T23:45:16.038Z,99035.16
2023-03-23T23:47:42.585Z,99031.16
2023-03-23T23:50:11.472Z,99026.38
2023-03-23T23:52:38.983Z,99031.09
2023-03-23T23:55:07.514Z,99023.13
2023-03-23T23:57:34.440Z,99027.13
